Time;durP1;ratioP1;P1;durP2;ratioP2;P2;SDS_P1;SDS_P2;PMS_P1;PMS_P2;Temp;Humidity;BMP_temperature;BMP_pressure;BME280_temperature;BME280_humidity;BME280_pressure;Samples;Min_cycle;Max_cycle;Signal;HPM_P1;HPM_P2
2023/04/03 00:01:03;;;;;;;3.53;1.83;;;2.40;99.90;;;;;;4989593;22;93768;-33
2023/04/03 00:03:28;;;;;;;1.70;1.23;;;2.30;99.90;;;;;;4937259;28;94567;-32
2023/04/03 00:05:54;;;;;;;1.52;1.42;;;2.40;99.90;;;;;;4949495;28;94121;-35
2023/04/03 00:08:20;;;;;;;1.40;1.27;;;2.40;99.90;;;;;;4942805;28;93099;-35
2023/04/03 00:10:46;;;;;;;3.80;1.60;;;2.30;99.90;;;;;;4944688;28;94583;-34
2023/04/03 00:13:12;;;;;;;1.77;1.00;;;2.30;99.90;;;;;;4937234;28;95999;-33
2023/04/03 00:15:38;;;;;;;1.60;1.45;;;2.10;99.90;;;;;;4937135;28;95875;-36
2023/04/03 00:18:05;;;;;;;3.65;1.33;;;2.10;99.90;;;;;;4942943;28;93282;-32
2023/04/03 00:20:31;;;;;;;1.25;1.15;;;2.10;99.90;;;;;;4945351;28;93202;-33
2023/04/03 00:22:57;;;;;;;1.42;1.33;;;2.10;99.90;;;;;;4941573;28;95314;-33
2023/04/03 00:25:22;;;;;;;1.55;1.33;;;2.20;99.90;;;;;;4956448;28;94600;-35
2023/04/03 00:27:48;;;;;;;3.53;1.15;;;2.20;99.90;;;;;;4951657;28;94499;-33
2023/04/03 00:30:17;;;;;;;2.55;1.42;;;2.20;99.90;;;;;;4937465;28;91646;-39
2023/04/03 00:32:43;;;;;;;1.35;1.25;;;2.20;99.90;;;;;;4936677;28;92975;-36
2023/04/03 00:35:09;;;;;;;2.30;1.98;;;2.10;99.90;;;;;;4936832;28;95945;-34
2023/04/03 00:37:35;;;;;;;2.60;1.17;;;2.00;99.90;;;;;;4937126;28;94131;-37
2023/04/03 00:40:01;;;;;;;1.33;1.23;;;2.00;99.90;;;;;;4937354;28;92869;-32
2023/04/03 00:42:27;;;;;;;3.45;1.48;;;2.00;99.90;;;;;;4941878;28;94793;-34
2023/04/03 00:44:52;;;;;;;0.98;0.98;;;2.00;99.90;;;;;;4957412;28;94568;-35
2023/04/03 00:47:18;;;;;;;1.90;1.75;;;2.00;99.90;;;;;;4941389;28;92237;-34
2023/04/03 00:49:45;;;;;;;2.33;1.15;;;1.90;99.90;;;;;;4940556;28;94019;-36
2023/04/03 00:52:15;;;;;;;3.55;2.90;;;1.80;99.90;;;;;;4952966;28;95288;-32
2023/04/03 00:54:42;;;;;;;1.70;1.35;;;1.80;99.90;;;;;;4940276;28;94158;-33
2023/04/03 00:57:10;;;;;;;1.67;1.40;;;1.70;99.90;;;;;;4940200;28;93834;-36
2023/04/03 00:59:43;;;;;;;4.93;1.60;;;1.70;99.90;;;;;;4940040;28;92892;-37
2023/04/03 01:02:10;;;;;;;3.35;1.88;;;1.60;99.90;;;;;;4940183;28;94266;-35
2023/04/03 01:04:40;;;;;;;1.50;1.40;;;1.70;99.90;;;;;;4940438;28;96667;-34
2023/04/03 01:07:19;;;;;;;1.90;1.60;;;1.60;99.90;;;;;;4940684;28;94291;-34
2023/04/03 01:09:46;;;;;;;3.80;2.25;;;1.60;99.90;;;;;;4952129;28;94903;-34
2023/04/03 01:12:22;;;;;;;1.40;1.13;;;1.60;99.90;;;;;;4939876;28;94677;-33
2023/04/03 01:14:50;;;;;;;2.75;1.77;;;1.60;99.90;;;;;;4940070;28;94200;-34
2023/04/03 01:17:35;;;;;;;2.75;1.20;;;1.50;99.90;;;;;;4940692;28;93522;-34
2023/04/03 01:20:35;;;;;;;1.38;1.13;;;1.60;99.90;;;;;;4939792;28;92885;-36
2023/04/03 01:23:09;;;;;;;4.28;2.03;;;1.50;99.90;;;;;;4940001;28;94169;-33
2023/04/03 01:25:48;;;;;;;2.42;1.42;;;1.50;99.90;;;;;;4952587;28;94504;-33
2023/04/03 01:28:25;;;;;;;3.33;1.60;;;1.50;99.90;;;;;;4939982;28;94023;-39
2023/04/03 01:31:29;;;;;;;4.68;1.88;;;1.50;99.90;;;;;;4939008;28;94259;-39
2023/04/03 01:33:55;;;;;;;3.83;1.45;;;1.60;99.90;;;;;;4939098;28;95342;-34
2023/04/03 01:36:28;;;;;;;1.85;1.52;;;1.40;99.90;;;;;;4939368;28;94230;-34
2023/04/03 01:38:54;;;;;;;1.70;1.60;;;1.50;99.90;;;;;;4940208;28;93254;-37
2023/04/03 01:41:20;;;;;;;2.30;1.35;;;1.50;99.90;;;;;;4939429;28;92633;-33
2023/04/03 01:43:47;;;;;;;3.55;1.60;;;1.40;99.90;;;;;;4939196;28;95621;-36
2023/04/03 01:46:14;;;;;;;2.90;1.65;;;1.50;99.90;;;;;;4940411;28;94437;-36
2023/04/03 01:48:40;;;;;;;1.85;1.55;;;1.40;99.90;;;;;;4940107;28;92924;-34
2023/04/03 01:51:06;;;;;;;2.08;1.95;;;1.30;99.90;;;;;;4939957;28;93193;-33
2023/04/03 01:53:32;;;;;;;3.25;1.60;;;1.30;99.90;;;;;;4938765;28;95213;-34
2023/04/03 01:55:57;;;;;;;4.47;3.00;;;1.30;99.90;;;;;;4939359;28;95519;-35
2023/04/03 01:58:23;;;;;;;3.67;1.58;;;1.20;99.90;;;;;;4940305;28;93479;-34
2023/04/03 02:00:49;;;;;;;4.97;2.20;;;1.20;99.90;;;;;;4938587;28;94690;-34
2023/04/03 02:03:15;;;;;;;1.60;1.50;;;1.30;99.90;;;;;;4939460;28;94455;-34
2023/04/03 02:05:40;;;;;;;8.45;1.95;;;1.30;99.90;;;;;;4939092;28;94446;-33
2023/04/03 02:08:06;;;;;;;4.82;2.30;;;1.30;99.90;;;;;;4952471;28;94562;-37
2023/04/03 02:10:32;;;;;;;2.80;1.73;;;1.30;99.90;;;;;;4939173;28;92620;-34
2023/04/03 02:12:58;;;;;;;2.53;2.25;;;1.20;99.90;;;;;;4938109;28;94658;-34
2023/04/03 02:15:23;;;;;;;2.25;1.95;;;1.20;99.90;;;;;;4939299;28;94257;-34
2023/04/03 02:17:49;;;;;;;1.98;1.77;;;1.10;99.90;;;;;;4941816;28;93159;-34
2023/04/03 02:20:15;;;;;;;1.52;1.42;;;1.10;99.90;;;;;;4949253;28;93442;-34
2023/04/03 02:22:40;;;;;;;3.13;1.70;;;1.00;99.90;;;;;;4941487;28;94856;-32
2023/04/03 02:25:07;;;;;;;1.50;1.40;;;0.90;99.90;;;;;;4948297;28;94483;-38
2023/04/03 02:27:32;;;;;;;2.70;1.92;;;0.80;99.90;;;;;;4953107;28;94550;-34
2023/04/03 02:29:58;;;;;;;2.08;1.77;;;0.80;99.90;;;;;;4938063;28;92669;-33
2023/04/03 02:32:24;;;;;;;5.60;1.50;;;0.70;99.90;;;;;;4938654;28;94443;-36
2023/04/03 02:34:49;;;;;;;3.90;2.22;;;0.70;99.90;;;;;;4938352;28;96088;-37
2023/04/03 02:37:15;;;;;;;1.83;1.73;;;0.60;99.90;;;;;;4938896;28;94027;-34
2023/04/03 02:39:41;;;;;;;4.90;2.00;;;0.60;99.90;;;;;;4939116;28;93938;-34
2023/04/03 02:42:07;;;;;;;3.08;2.10;;;0.60;99.90;;;;;;4937377;28;95713;-33
2023/04/03 02:44:32;;;;;;;2.05;1.58;;;0.50;99.90;;;;;;4938853;28;95133;-32
2023/04/03 02:46:58;;;;;;;3.30;1.98;;;0.50;99.90;;;;;;4938256;28;94106;-33
2023/04/03 02:49:24;;;;;;;5.88;1.88;;;0.60;99.90;;;;;;4947927;28;94341;-39
2023/04/03 02:51:51;;;;;;;2.40;2.00;;;0.50;99.90;;;;;;4953781;28;94676;-35
2023/04/03 02:54:16;;;;;;;2.70;1.83;;;0.40;99.90;;;;;;4938257;28;93959;-33
2023/04/03 02:56:42;;;;;;;3.38;1.70;;;0.40;99.90;;;;;;4938544;28;94369;-38
2023/04/03 02:59:08;;;;;;;4.32;2.30;;;0.40;99.90;;;;;;4938046;28;92942;-38
2023/04/03 03:01:33;;;;;;;2.40;1.70;;;0.30;99.90;;;;;;4937831;28;94378;-37
2023/04/03 03:04:00;;;;;;;7.25;2.95;;;0.40;99.90;;;;;;4938802;28;94787;-33
2023/04/03 03:06:26;;;;;;;7.68;2.33;;;0.40;99.90;;;;;;4937488;28;95155;-34
2023/04/03 03:08:52;;;;;;;2.20;2.00;;;0.50;99.90;;;;;;4937364;28;92519;-35
2023/04/03 03:11:17;;;;;;;4.80;2.80;;;0.50;99.90;;;;;;4937572;28;96164;-36
2023/04/03 03:13:45;;;;;;;7.13;2.13;;;0.50;99.90;;;;;;4937865;28;94582;-37
2023/04/03 03:16:10;;;;;;;7.18;2.78;;;0.50;99.90;;;;;;4938596;28;93141;-34
2023/04/03 03:18:36;;;;;;;8.02;2.90;;;0.40;99.90;;;;;;4937509;28;94101;-34
2023/04/03 03:21:03;;;;;;;2.58;2.03;;;0.40;99.90;;;;;;4937382;28;94587;-35
2023/04/03 03:23:31;;;;;;;3.15;2.75;;;0.30;99.90;;;;;;4947883;28;94542;-34
2023/04/03 03:26:10;;;;;;;4.97;1.80;;;0.30;99.90;;;;;;4940877;28;94393;-38
2023/04/03 03:28:37;;;;;;;2.22;2.08;;;0.30;99.90;;;;;;4938076;28;92917;-33
2023/04/03 03:31:04;;;;;;;5.57;1.85;;;0.30;99.90;;;;;;4936244;28;96113;-33
2023/04/03 03:33:29;;;;;;;5.82;2.97;;;0.30;99.90;;;;;;4937643;28;95629;-35
2023/04/03 03:35:56;;;;;;;5.97;2.40;;;0.30;99.90;;;;;;4936190;28;93062;-33
2023/04/03 03:38:22;;;;;;;3.85;2.70;;;0.20;99.90;;;;;;4937738;28;92447;-35
2023/04/03 03:40:48;;;;;;;2.35;2.17;;;0.30;99.90;;;;;;4937542;28;96000;-33
2023/04/03 03:43:15;;;;;;;7.68;2.15;;;0.30;99.90;;;;;;4937261;28;94039;-39
2023/04/03 03:45:40;;;;;;;4.07;3.30;;;0.30;99.90;;;;;;4937315;28;93392;-39
2023/04/03 03:48:06;;;;;;;2.92;2.30;;;0.30;99.90;;;;;;4950898;28;92758;-32
2023/04/03 03:50:32;;;;;;;3.30;2.70;;;0.30;99.90;;;;;;4938311;28;94635;-31
2023/04/03 03:52:57;;;;;;;2.00;1.85;;;0.30;99.90;;;;;;4937395;28;93869;-36
2023/04/03 03:55:23;;;;;;;3.88;2.58;;;0.30;99.90;;;;;;4937050;28;96030;-33
2023/04/03 03:57:49;;;;;;;6.13;2.78;;;0.30;99.90;;;;;;4937538;28;93610;-38
2023/04/03 04:00:15;;;;;;;5.78;2.08;;;0.30;99.90;;;;;;4936882;28;94751;-33
2023/04/03 04:02:41;;;;;;;5.55;4.05;;;0.30;99.90;;;;;;4936742;28;94230;-32
2023/04/03 04:05:07;;;;;;;3.95;3.25;;;0.30;99.90;;;;;;4937808;28;93642;-36
2023/04/03 04:07:33;;;;;;;4.57;2.55;;;0.20;99.90;;;;;;4937053;28;92700;-35
2023/04/03 04:09:58;;;;;;;4.85;2.83;;;0.30;99.90;;;;;;4943104;28;95044;-34
2023/04/03 04:12:24;;;;;;;4.70;3.47;;;0.20;99.90;;;;;;4945757;28;96274;-35
2023/04/03 04:14:50;;;;;;;3.72;2.63;;;0.20;99.90;;;;;;4936660;28;92225;-31
2023/04/03 04:17:16;;;;;;;3.28;2.63;;;0.20;99.90;;;;;;4937296;28;92161;-33
2023/04/03 04:19:41;;;;;;;3.75;2.75;;;0.10;99.90;;;;;;4935605;28;95076;-37
2023/04/03 04:22:07;;;;;;;4.50;2.88;;;0.20;99.90;;;;;;4937081;28;95988;-33
2023/04/03 04:24:33;;;;;;;6.65;3.55;;;0.10;99.90;;;;;;4949974;28;94368;-35
2023/04/03 04:26:58;;;;;;;7.00;3.97;;;0.10;99.90;;;;;;4936515;28;94002;-39
2023/04/03 04:29:24;;;;;;;6.68;2.70;;;0.10;99.90;;;;;;4937556;28;94506;-31
2023/04/03 04:31:50;;;;;;;5.22;3.67;;;0.10;99.90;;;;;;4947751;28;95009;-33
2023/04/03 04:34:15;;;;;;;4.70;3.28;;;0.10;99.90;;;;;;4938781;28;94152;-35
2023/04/03 04:36:41;;;;;;;7.10;2.95;;;0.10;99.90;;;;;;4936535;28;92809;-37
2023/04/03 04:39:07;;;;;;;4.60;2.88;;;0.10;99.90;;;;;;4941795;28;94175;-35
2023/04/03 04:41:34;;;;;;;3.58;2.88;;;0.00;99.90;;;;;;4945310;28;94908;-32
2023/04/03 04:44:00;;;;;;;2.47;2.30;;;0.00;99.90;;;;;;4936528;28;95594;-34
2023/04/03 04:46:26;;;;;;;3.35;3.03;;;-0.10;99.90;;;;;;4937164;28;94259;-36
2023/04/03 04:48:52;;;;;;;6.68;2.83;;;0.00;99.90;;;;;;4936662;28;94918;-34
2023/04/03 04:51:17;;;;;;;3.92;2.72;;;-0.10;99.90;;;;;;4935886;28;94603;-37
2023/04/03 04:53:43;;;;;;;6.72;3.38;;;-0.10;99.90;;;;;;4937535;28;94358;-33
2023/04/03 04:56:09;;;;;;;9.07;3.78;;;-0.10;99.90;;;;;;4947809;28;92588;-39
2023/04/03 04:58:35;;;;;;;5.70;2.55;;;-0.20;99.90;;;;;;4938102;28;94963;-33
2023/04/03 05:01:02;;;;;;;4.57;3.17;;;-0.20;99.90;;;;;;4936453;28;94463;-34
2023/04/03 05:03:28;;;;;;;10.27;2.72;;;-0.30;99.90;;;;;;4949799;28;93388;-31
2023/04/03 05:05:54;;;;;;;8.02;3.10;;;-0.30;99.90;;;;;;4936667;28;93675;-34
2023/04/03 05:08:20;;;;;;;7.93;2.92;;;-0.30;99.90;;;;;;4935677;28;97361;-32
2023/04/03 05:10:46;;;;;;;3.40;2.63;;;-0.40;99.90;;;;;;4948155;28;95286;-38
2023/04/03 05:13:12;;;;;;;3.20;2.85;;;-0.40;99.90;;;;;;4937605;28;94518;-32
2023/04/03 05:15:38;;;;;;;4.43;3.15;;;-0.40;99.90;;;;;;4942641;28;92235;-34
2023/04/03 05:18:04;;;;;;;5.05;3.40;;;-0.40;99.90;;;;;;4949734;28;95761;-37
2023/04/03 05:20:31;;;;;;;5.88;3.65;;;-0.40;99.90;;;;;;4936344;28;95265;-33
2023/04/03 05:22:56;;;;;;;3.28;3.00;;;-0.30;99.90;;;;;;4940859;28;94383;-33
2023/04/03 05:25:22;;;;;;;4.57;3.90;;;-0.30;99.90;;;;;;4943413;28;92899;-32
2023/04/03 05:27:48;;;;;;;3.88;3.58;;;-0.20;99.90;;;;;;4940821;28;94544;-37
2023/04/03 05:30:14;;;;;;;3.85;3.22;;;-0.20;99.90;;;;;;4944319;28;94503;-34
2023/04/03 05:32:40;;;;;;;3.78;3.33;;;0.00;99.90;;;;;;4939428;28;93881;-32
2023/04/03 05:35:07;;;;;;;4.60;3.00;;;0.00;99.90;;;;;;4950991;28;94479;-34
2023/04/03 05:37:33;;;;;;;7.68;3.50;;;0.00;99.90;;;;;;4940691;28;94648;-33
2023/04/03 05:39:59;;;;;;;5.13;4.05;;;0.00;99.90;;;;;;4939307;28;94089;-33
2023/04/03 05:42:24;;;;;;;6.38;4.45;;;0.10;99.90;;;;;;4937451;28;93384;-35
2023/04/03 05:44:50;;;;;;;5.47;3.65;;;0.10;99.90;;;;;;4939575;28;92196;-39
2023/04/03 05:47:16;;;;;;;4.65;3.28;;;0.10;99.90;;;;;;4938718;28;94608;-32
2023/04/03 05:49:42;;;;;;;5.07;4.00;;;0.10;99.90;;;;;;4939327;28;95284;-33
2023/04/03 05:52:22;;;;;;;6.20;4.18;;;0.00;99.90;;;;;;4939569;28;93493;-34
2023/04/03 05:54:48;;;;;;;9.05;3.78;;;0.00;99.90;;;;;;4945042;28;94088;-32
2023/04/03 05:57:15;;;;;;;5.80;3.28;;;0.00;99.90;;;;;;4937576;28;95688;-34
2023/04/03 05:59:45;;;;;;;5.07;3.83;;;0.10;99.90;;;;;;4937872;28;95066;-36
2023/04/03 06:02:16;;;;;;;6.18;3.80;;;0.10;99.90;;;;;;4938799;28;93874;-36
2023/04/03 06:04:43;;;;;;;5.20;3.40;;;0.20;99.90;;;;;;4944324;28;93418;-33
2023/04/03 06:07:15;;;;;;;9.30;3.95;;;0.30;99.90;;;;;;4938982;28;94284;-36
2023/04/03 06:09:41;;;;;;;6.75;3.45;;;0.40;99.90;;;;;;4938553;28;95985;-37
2023/04/03 06:12:07;;;;;;;4.57;3.22;;;0.40;99.90;;;;;;4939411;28;92970;-35
2023/04/03 06:14:33;;;;;;;4.80;4.40;;;0.50;99.90;;;;;;4939148;28;94415;-33
2023/04/03 06:16:59;;;;;;;8.10;4.75;;;0.50;99.90;;;;;;4940817;28;94552;-39
2023/04/03 06:19:25;;;;;;;7.07;4.43;;;0.50;99.90;;;;;;4942814;28;95578;-32
2023/04/03 06:21:51;;;;;;;9.82;4.30;;;0.60;99.90;;;;;;4937725;28;95832;-33
2023/04/03 06:24:18;;;;;;;4.85;3.67;;;0.60;99.90;;;;;;4951339;28;92859;-35
2023/04/03 06:26:43;;;;;;;5.20;4.80;;;0.50;99.90;;;;;;4938572;28;94851;-34
2023/04/03 06:29:09;;;;;;;15.82;4.28;;;0.60;99.90;;;;;;4938245;28;94847;-40
2023/04/03 06:31:36;;;;;;;5.15;4.65;;;0.80;99.90;;;;;;4940611;28;94331;-30
2023/04/03 06:34:02;;;;;;;16.10;4.57;;;0.80;99.90;;;;;;4939858;28;94210;-33
2023/04/03 06:36:28;;;;;;;4.03;3.65;;;0.90;99.90;;;;;;4938176;28;94899;-34
2023/04/03 06:38:54;;;;;;;4.30;3.50;;;0.90;99.90;;;;;;4943457;28;94860;-34
2023/04/03 06:41:21;;;;;;;12.63;5.13;;;1.10;99.90;;;;;;4948553;28;94548;-32
2023/04/03 06:43:47;;;;;;;8.00;3.75;;;1.10;99.90;;;;;;4943183;28;94588;-32
2023/04/03 06:46:17;;;;;;;3.55;3.25;;;1.10;99.90;;;;;;4947674;28;95677;-35
2023/04/03 06:48:44;;;;;;;7.55;3.55;;;1.30;99.90;;;;;;4938583;28;95117;-31
2023/04/03 06:51:28;;;;;;;6.05;3.50;;;1.40;99.90;;;;;;4950505;28;93626;-38
2023/04/03 06:53:55;;;;;;;5.63;3.90;;;1.60;99.90;;;;;;4944820;28;94235;-36
2023/04/03 06:56:22;;;;;;;7.07;4.35;;;1.70;99.90;;;;;;4945340;28;94785;-32
2023/04/03 06:58:48;;;;;;;7.93;3.88;;;1.90;99.90;;;;;;4944721;28;94915;-31
2023/04/03 07:01:15;;;;;;;3.10;2.67;;;2.00;99.90;;;;;;4945294;28;92128;-37
2023/04/03 07:03:41;;;;;;;3.10;2.55;;;2.20;99.90;;;;;;4944824;28;92341;-32
2023/04/03 07:06:07;;;;;;;13.20;4.40;;;2.40;99.90;;;;;;4956962;28;94619;-34
2023/04/03 07:08:34;;;;;;;3.60;2.72;;;2.50;99.90;;;;;;4945011;28;95584;-32
2023/04/03 07:11:00;;;;;;;4.38;2.95;;;2.70;99.90;;;;;;4957373;28;94092;-32
2023/04/03 07:13:26;;;;;;;3.63;2.28;;;2.80;99.90;;;;;;4937752;28;92628;-34
2023/04/03 07:15:52;;;;;;;17.85;3.55;;;2.90;99.90;;;;;;4935392;28;94494;-34
2023/04/03 07:18:18;;;;;;;5.22;2.95;;;3.10;99.90;;;;;;4937539;28;95865;-34
2023/04/03 07:20:44;;;;;;;3.35;3.05;;;3.20;99.90;;;;;;4955620;28;93103;-35
2023/04/03 07:23:10;;;;;;;1.90;1.65;;;3.40;99.90;;;;;;4943589;28;94041;-37
2023/04/03 07:25:36;;;;;;;3.17;1.88;;;3.40;99.90;;;;;;4940802;28;95213;-32
2023/04/03 07:28:01;;;;;;;5.07;3.28;;;3.60;99.90;;;;;;4935939;28;94368;-35
2023/04/03 07:30:27;;;;;;;5.32;2.33;;;3.70;99.90;;;;;;4936043;28;93213;-33
2023/04/03 07:32:53;;;;;;;3.53;2.40;;;3.70;99.90;;;;;;4936099;28;93061;-35
2023/04/03 07:35:18;;;;;;;5.80;2.88;;;3.70;99.90;;;;;;4935497;28;95670;-34
2023/04/03 07:37:44;;;;;;;6.32;2.40;;;4.00;99.90;;;;;;4938725;28;95143;-31
2023/04/03 07:40:10;;;;;;;1.92;1.83;;;3.90;99.90;;;;;;4936423;28;92922;-34
2023/04/03 07:42:36;;;;;;;3.45;2.67;;;4.10;99.90;;;;;;4935332;28;94132;-32
2023/04/03 07:45:03;;;;;;;2.92;1.70;;;4.30;99.90;;;;;;4940098;28;95383;-34
2023/04/03 07:47:29;;;;;;;2.63;1.90;;;4.30;99.90;;;;;;4938874;28;95038;-34
2023/04/03 07:49:57;;;;;;;2.95;2.05;;;4.40;99.90;;;;;;4935020;28;93433;-34
2023/04/03 07:52:23;;;;;;;3.53;2.13;;;4.50;99.90;;;;;;4935742;28;93166;-36
2023/04/03 07:54:48;;;;;;;4.72;2.90;;;4.70;99.90;;;;;;4946085;28;94493;-37
2023/04/03 07:57:14;;;;;;;7.72;2.00;;;5.10;99.90;;;;;;4947066;28;95125;-36
2023/04/03 07:59:42;;;;;;;3.70;2.70;;;5.10;99.90;;;;;;4935359;28;93928;-35
2023/04/03 08:02:10;;;;;;;8.15;2.13;;;4.90;99.90;;;;;;4948971;28;93025;-36
2023/04/03 08:04:35;;;;;;;5.30;2.30;;;5.00;99.90;;;;;;4935292;28;94847;-32
2023/04/03 08:07:01;;;;;;;2.38;1.85;;;5.10;99.90;;;;;;4934687;28;94517;-38
2023/04/03 08:09:27;;;;;;;2.50;2.15;;;5.40;99.90;;;;;;4936360;28;93041;-32
2023/04/03 08:11:53;;;;;;;3.35;2.05;;;5.40;99.90;;;;;;4934657;28;93860;-31
2023/04/03 08:14:19;;;;;;;4.25;2.17;;;5.50;99.90;;;;;;4935273;28;94748;-34
2023/04/03 08:16:46;;;;;;;2.10;1.95;;;5.70;99.90;;;;;;4939949;28;94654;-35
2023/04/03 08:19:13;;;;;;;2.38;2.05;;;5.60;99.90;;;;;;4952367;28;94922;-31
2023/04/03 08:21:41;;;;;;;2.90;2.03;;;5.50;99.90;;;;;;4936080;28;94437;-33
2023/04/03 08:24:08;;;;;;;5.25;2.30;;;5.80;99.90;;;;;;4946504;28;95542;-36
2023/04/03 08:26:34;;;;;;;4.90;2.42;;;5.90;99.90;;;;;;4933069;28;96940;-35
2023/04/03 08:29:00;;;;;;;1.85;1.60;;;6.20;99.90;;;;;;4933669;28;93434;-34
2023/04/03 08:31:26;;;;;;;3.35;2.40;;;6.20;99.90;;;;;;4934204;28;93508;-36
2023/04/03 08:33:52;;;;;;;5.90;2.05;;;6.20;99.90;;;;;;4933715;28;94879;-35
2023/04/03 08:36:19;;;;;;;7.80;1.98;;;6.40;99.90;;;;;;4934722;28;94713;-35
2023/04/03 08:38:45;;;;;;;3.05;1.88;;;6.50;99.90;;;;;;4945892;28;93599;-33
2023/04/03 08:41:11;;;;;;;9.80;2.25;;;6.60;99.90;;;;;;4934717;28;93672;-32
2023/04/03 08:44:01;;;;;;;2.65;2.00;;;6.60;82.80;;;;;;4935236;28;94517;-32
2023/04/03 08:46:45;;;;;;;1.40;0.85;;;6.80;99.90;;;;;;4936388;28;94620;-33
2023/04/03 08:49:28;;;;;;;6.97;2.22;;;6.50;78.60;;;;;;4936746;28;93071;-33
2023/04/03 08:51:56;;;;;;;5.80;1.80;;;6.50;84.30;;;;;;4932914;28;92996;-35
2023/04/03 08:54:30;;;;;;;2.38;2.05;;;7.00;89.30;;;;;;4934434;28;94967;-36
2023/04/03 08:56:57;;;;;;;4.30;1.45;;;7.10;77.70;;;;;;4934711;28;94411;-36
2023/04/03 08:59:28;;;;;;;1.20;1.10;;;7.20;74.40;;;;;;4935590;28;93317;-33
2023/04/03 09:01:55;;;;;;;2.15;1.33;;;7.60;75.00;;;;;;4934925;28;93029;-31
2023/04/03 09:04:21;;;;;;;1.45;1.35;;;7.60;72.80;;;;;;4935029;28;93283;-32
2023/04/03 09:06:56;;;;;;;3.45;1.42;;;7.50;74.70;;;;;;4938872;28;95389;-30
2023/04/03 09:09:36;;;;;;;1.02;0.77;;;7.50;72.80;;;;;;4940402;28;94750;-35
2023/04/03 09:12:09;;;;;;;2.10;1.42;;;7.30;73.20;;;;;;4939967;28;93838;-32
2023/04/03 09:14:39;;;;;;;1.75;1.00;;;7.60;72.70;;;;;;4939511;28;97337;-31
2023/04/03 09:17:37;;;;;;;1.65;1.25;;;7.60;76.70;;;;;;4940687;28;94428;-31
2023/04/03 09:20:19;;;;;;;1.45;1.20;;;7.80;75.90;;;;;;4940942;28;94339;-32
2023/04/03 09:22:45;;;;;;;3.25;1.73;;;8.20;71.80;;;;;;4943570;28;94095;-30
2023/04/03 09:25:38;;;;;;;0.93;0.80;;;8.00;69.00;;;;;;4950075;28;94829;-31
2023/04/03 09:28:09;;;;;;;3.65;1.50;;;8.20;70.20;;;;;;4939833;28;94860;-32
2023/04/03 09:30:35;;;;;;;1.65;1.55;;;8.60;70.40;;;;;;4939801;28;94522;-30
2023/04/03 09:33:01;;;;;;;3.65;2.10;;;8.10;71.60;;;;;;4940431;28;91845;-30
2023/04/03 09:35:33;;;;;;;6.80;2.40;;;8.00;70.40;;;;;;4939271;28;94330;-30
2023/04/03 09:37:59;;;;;;;10.35;2.83;;;8.40;70.70;;;;;;4939311;28;93106;-32
2023/04/03 09:40:28;;;;;;;1.40;1.30;;;8.20;70.20;;;;;;4939710;28;94160;-30
2023/04/03 09:42:57;;;;;;;6.05;2.22;;;8.50;72.30;;;;;;4939090;28;92136;-34
2023/04/03 09:45:30;;;;;;;2.13;1.58;;;8.50;69.10;;;;;;4951830;28;93948;-29
2023/04/03 09:48:15;;;;;;;3.65;1.58;;;8.50;70.40;;;;;;4939400;28;95086;-29
2023/04/03 09:50:50;;;;;;;3.17;1.00;;;9.00;67.10;;;;;;4939597;28;93843;-34
2023/04/03 09:53:41;;;;;;;1.42;1.30;;;8.80;65.30;;;;;;4939744;28;93653;-34
2023/04/03 09:56:16;;;;;;;1.65;1.55;;;8.60;66.40;;;;;;4939310;28;94754;-32
2023/04/03 09:58:48;;;;;;;1.90;1.38;;;8.40;66.70;;;;;;4939562;28;94778;-31
2023/04/03 10:01:32;;;;;;;3.60;1.52;;;8.40;66.00;;;;;;4939620;28;94581;-36
2023/04/03 10:04:12;;;;;;;0.80;0.80;;;8.30;64.00;;;;;;4939217;28;93022;-34
2023/04/03 10:06:46;;;;;;;1.70;1.45;;;8.30;64.50;;;;;;4938646;28;94473;-31
2023/04/03 10:09:27;;;;;;;2.85;1.55;;;8.30;68.30;;;;;;4939052;28;95214;-34
2023/04/03 10:12:12;;;;;;;1.42;1.33;;;8.80;69.10;;;;;;4939975;28;93600;-31
2023/04/03 10:14:52;;;;;;;1.30;1.02;;;9.00;62.90;;;;;;4939513;28;93739;-33
2023/04/03 10:17:43;;;;;;;1.42;1.27;;;9.10;60.60;;;;;;4938320;28;93847;-34
2023/04/03 10:20:35;;;;;;;1.92;1.00;;;9.00;64.00;;;;;;4938705;28;93369;-30
2023/04/03 10:23:22;;;;;;;1.55;1.25;;;9.00;61.00;;;;;;4944955;28;93950;-31
2023/04/03 10:26:15;;;;;;;3.63;2.45;;;9.30;62.30;;;;;;4943465;28;94021;-33
2023/04/03 10:28:47;;;;;;;2.22;1.60;;;9.20;59.40;;;;;;4938101;28;94863;-32
2023/04/03 10:31:15;;;;;;;2.38;1.42;;;9.10;62.60;;;;;;4951863;28;94701;-32
2023/04/03 10:34:03;;;;;;;1.38;1.23;;;9.40;63.30;;;;;;4938231;28;94461;-30
2023/04/03 10:36:52;;;;;;;2.50;1.35;;;9.40;66.00;;;;;;4948167;28;94383;-32
2023/04/03 10:39:41;;;;;;;2.10;1.48;;;9.60;61.90;;;;;;4938107;28;94834;-33
2023/04/03 10:42:29;;;;;;;1.63;1.15;;;9.60;62.20;;;;;;4930206;28;93483;-32
2023/04/03 10:45:07;;;;;;;0.95;0.90;;;9.80;62.50;;;;;;4938576;28;92702;-30
2023/04/03 10:47:33;;;;;;;;;;;9.70;61.40;;;;;;4939284;28;93849;-30
2023/04/03 10:50:39;;;;;;;1.98;1.50;;;9.20;62.30;;;;;;4939907;28;94412;-33
2023/04/03 10:53:19;;;;;;;4.88;1.70;;;9.10;61.60;;;;;;4923981;28;95659;-33
2023/04/03 10:56:13;;;;;;;2.60;1.20;;;9.10;62.20;;;;;;4939293;28;93629;-30
2023/04/03 10:58:57;;;;;;;6.32;1.48;;;8.90;61.70;;;;;;4949758;28;92469;-33
2023/04/03 11:01:31;;;;;;;5.22;1.58;;;8.90;60.40;;;;;;4936667;28;95520;-36
2023/04/03 11:03:59;;;;;;;2.78;2.13;;;8.80;62.00;;;;;;4941167;28;95092;-32
2023/04/03 11:06:36;;;;;;;4.32;1.63;;;9.10;62.80;;;;;;4941883;28;93631;-33
2023/04/03 11:09:13;;;;;;;1.63;1.20;;;9.20;64.00;;;;;;4951634;28;94571;-31
2023/04/03 11:11:41;;;;;;;4.60;1.80;;;9.50;64.90;;;;;;4947278;28;94281;-36
2023/04/03 11:14:10;;;;;;;2.53;1.45;;;9.20;59.20;;;;;;4939662;28;95075;-33
2023/04/03 11:16:42;;;;;;;2.38;1.50;;;9.50;62.80;;;;;;4938643;28;94167;-35
2023/04/03 11:19:25;;;;;;;3.85;1.85;;;9.30;65.00;;;;;;4938434;28;91803;-32
2023/04/03 11:22:26;;;;;;;3.88;1.63;;;9.40;61.90;;;;;;4943691;28;94476;-33
2023/04/03 11:25:12;;;;;;;4.05;1.88;;;9.10;61.10;;;;;;4930635;28;94219;-33
2023/04/03 11:28:01;;;;;;;1.92;1.27;;;8.90;59.30;;;;;;4927102;28;93642;-33
2023/04/03 11:30:46;;;;;;;0.95;0.95;;;9.00;63.00;;;;;;4938457;28;92757;-33
2023/04/03 11:33:43;;;;;;;1.85;1.50;;;9.10;63.90;;;;;;4937490;28;95353;-32
2023/04/03 11:36:12;;;;;;;1.30;1.20;;;9.30;65.50;;;;;;4941193;28;94486;-34
2023/04/03 11:38:43;;;;;;;1.88;1.45;;;9.40;61.90;;;;;;4936636;28;92297;-34
2023/04/03 11:41:11;;;;;;;3.78;1.42;;;9.40;62.20;;;;;;4941069;28;93692;-36
2023/04/03 11:43:54;;;;;;;1.90;1.20;;;9.40;65.20;;;;;;4939757;28;95045;-32
2023/04/03 11:46:20;;;;;;;2.80;1.30;;;9.30;59.50;;;;;;4941704;28;94026;-33
2023/04/03 11:48:48;;;;;;;1.27;1.17;;;9.20;60.60;;;;;;4942721;28;93282;-36
2023/04/03 11:51:17;;;;;;;1.30;1.02;;;9.30;62.50;;;;;;4934803;28;93523;-34
2023/04/03 11:53:43;;;;;;;2.92;1.95;;;9.20;62.60;;;;;;4938039;28;95259;-34
2023/04/03 11:56:27;;;;;;;1.42;1.20;;;9.30;60.90;;;;;;4934510;28;95777;-34
2023/04/03 12:02:36;;;;;;;5.05;1.48;;;9.40;62.30;;;;;;4875482;28;94297;-33
2023/04/03 12:05:27;;;;;;;1.80;0.80;;;9.50;64.70;;;;;;4875973;28;95940;-34
2023/04/03 12:08:20;;;;;;;3.13;1.13;;;9.60;60.70;;;;;;4877389;28;95420;-33
2023/04/03 12:11:08;;;;;;;1.42;1.33;;;9.60;63.60;;;;;;4877669;28;93375;-35
2023/04/03 12:13:35;;;;;;;2.20;1.23;;;9.50;63.00;;;;;;4878195;28;92848;-32
2023/04/03 12:16:03;;;;;;;2.58;0.93;;;9.40;65.60;;;;;;4877259;28;95204;-33
2023/04/03 12:18:53;;;;;;;1.30;1.20;;;9.30;63.20;;;;;;4878135;28;92881;-33
2023/04/03 12:21:56;;;;;;;2.40;1.33;;;9.30;61.90;;;;;;4877529;28;93724;-32
2023/04/03 12:24:51;;;;;;;2.28;1.55;;;9.00;61.00;;;;;;4877349;28;93612;-36
2023/04/03 12:27:34;;;;;;;1.60;1.40;;;9.10;65.30;;;;;;4876065;28;94329;-34
2023/04/03 12:30:03;;;;;;;2.28;1.65;;;9.10;62.70;;;;;;4877695;28;93967;-33
2023/04/03 12:32:44;;;;;;;1.70;1.60;;;9.10;61.90;;;;;;4877523;28;93269;-34
2023/04/03 12:35:31;;;;;;;4.13;1.05;;;9.10;61.50;;;;;;4877621;28;94143;-36
2023/04/03 12:38:15;;;;;;;1.55;1.35;;;9.10;62.40;;;;;;4866488;28;94326;-34
2023/04/03 12:41:11;;;;;;;2.60;1.83;;;9.00;62.20;;;;;;4877360;28;94787;-37
2023/04/03 12:43:56;;;;;;;2.08;1.23;;;9.00;61.50;;;;;;4880775;28;94527;-35
2023/04/03 12:46:23;;;;;;;5.68;2.05;;;9.00;63.20;;;;;;4881085;28;92270;-33
2023/04/03 12:48:59;;;;;;;3.58;1.33;;;9.20;65.40;;;;;;4879137;28;95842;-33
2023/04/03 12:51:36;;;;;;;2.83;2.15;;;9.30;62.60;;;;;;4880347;28;94898;-35
2023/04/03 12:54:13;;;;;;;1.83;1.40;;;9.40;63.40;;;;;;4870439;28;94717;-36
2023/04/03 12:56:39;;;;;;;1.08;1.00;;;9.40;64.40;;;;;;4880202;28;94581;-32
2023/04/03 12:59:21;;;;;;;2.35;1.58;;;9.30;62.90;;;;;;4880172;28;94217;-33
2023/04/03 13:01:55;;;;;;;1.92;1.52;;;9.30;62.50;;;;;;4878711;28;94221;-32
2023/04/03 13:04:21;;;;;;;2.00;1.83;;;9.30;62.60;;;;;;4880877;28;92339;-32
2023/04/03 13:06:46;;;;;;;2.65;1.70;;;9.20;58.80;;;;;;4879869;28;93210;-34
2023/04/03 13:09:26;;;;;;;2.05;1.15;;;9.30;62.10;;;;;;4879735;28;94825;-33
2023/04/03 13:12:12;;;;;;;2.90;1.50;;;9.30;61.80;;;;;;4869106;28;93928;-33
2023/04/03 13:14:37;;;;;;;3.22;2.42;;;9.40;63.80;;;;;;4879510;28;94271;-35
2023/04/03 13:17:12;;;;;;;5.30;1.48;;;9.50;62.90;;;;;;4879195;28;94805;-35